Time;durP1;ratioP1;P1;durP2;ratioP2;P2;SDS_P1;SDS_P2;PMS_P1;PMS_P2;Temp;Humidity;BMP_temperature;BMP_pressure;BME280_temperature;BME280_humidity;BME280_pressure;Samples;Min_cycle;Max_cycle;Signal;HPM_P1;HPM_P2
2022/04/28 00:00:59;;;;;;;8.73;7.03;;;13.30;99.90;;;;;;4993442;28;20062;-57
2022/04/28 00:03:25;;;;;;;10.38;7.78;;;13.30;99.90;;;;;;4994113;28;20030;-53
2022/04/28 00:05:51;;;;;;;14.00;8.63;;;13.10;99.90;;;;;;4993830;28;20524;-56
2022/04/28 00:08:17;;;;;;;11.38;7.90;;;13.00;99.90;;;;;;4993899;28;20030;-57
2022/04/28 00:10:42;;;;;;;24.33;14.10;;;13.00;99.90;;;;;;4993892;28;20030;-57
2022/04/28 00:13:10;;;;;;;12.63;8.93;;;12.90;99.90;;;;;;4993679;28;20535;-58
2022/04/28 00:15:36;;;;;;;12.65;8.70;;;12.80;99.90;;;;;;4993340;28;20477;-55
2022/04/28 00:18:02;;;;;;;14.70;10.70;;;12.70;99.90;;;;;;4993607;28;20041;-54
2022/04/28 00:20:27;;;;;;;16.42;9.70;;;12.80;99.90;;;;;;4993591;28;20023;-60
2022/04/28 00:22:53;;;;;;;12.90;8.70;;;12.60;99.90;;;;;;4993712;28;20105;-56
2022/04/28 00:25:21;;;;;;;13.82;9.32;;;12.70;99.90;;;;;;4993537;28;20500;-59
2022/04/28 00:27:46;;;;;;;12.98;9.32;;;12.80;99.90;;;;;;4993513;28;20030;-59
2022/04/28 00:30:13;;;;;;;11.13;8.35;;;12.80;99.90;;;;;;4993315;28;20053;-57
2022/04/28 00:32:39;;;;;;;10.52;8.10;;;12.80;99.90;;;;;;4993425;28;20026;-56
2022/04/28 00:35:05;;;;;;;10.52;7.95;;;12.90;99.90;;;;;;4997072;28;20477;-57
2022/04/28 00:37:31;;;;;;;9.18;7.18;;;12.90;99.90;;;;;;4997262;28;20026;-55
2022/04/28 00:39:56;;;;;;;9.57;7.07;;;12.90;99.90;;;;;;4997130;28;20029;-57
2022/04/28 00:42:22;;;;;;;11.23;8.10;;;12.80;99.90;;;;;;4997510;28;20022;-55
2022/04/28 00:44:48;;;;;;;8.60;6.95;;;12.60;99.90;;;;;;4996061;28;20022;-57
2022/04/28 00:47:14;;;;;;;7.57;5.38;;;12.50;99.90;;;;;;4997110;28;20026;-56
2022/04/28 00:52:25;;;;;;;7.20;5.80;;;12.60;99.90;;;;;;4996915;28;20065;-58
2022/04/28 00:54:52;;;;;;;7.32;6.18;;;12.70;99.90;;;;;;4996836;28;20022;-60
2022/04/28 00:57:19;;;;;;;10.15;7.38;;;12.80;99.90;;;;;;4997195;28;20026;-57
2022/04/28 00:59:46;;;;;;;8.98;7.28;;;12.70;99.90;;;;;;4996713;28;20023;-57
2022/04/28 01:02:13;;;;;;;22.00;8.88;;;12.50;99.90;;;;;;4996749;28;20018;-53
2022/04/28 01:04:39;;;;;;;8.48;7.05;;;12.20;99.90;;;;;;4996792;28;20029;-56
2022/04/28 01:07:07;;;;;;;9.85;7.97;;;12.00;99.90;;;;;;4996892;28;20034;-54
2022/04/28 01:09:37;;;;;;;11.23;8.05;;;11.90;99.90;;;;;;4996571;28;20048;-57
2022/04/28 01:12:14;;;;;;;9.63;5.88;;;11.80;99.90;;;;;;4996590;28;20036;-58
2022/04/28 01:14:44;;;;;;;6.53;5.07;;;12.00;99.90;;;;;;4996784;28;20035;-56
2022/04/28 01:17:10;;;;;;;7.30;6.28;;;12.20;99.90;;;;;;4996632;28;20027;-56
2022/04/28 01:19:36;;;;;;;6.00;5.40;;;12.30;99.90;;;;;;4996535;28;20030;-57
2022/04/28 01:22:03;;;;;;;6.95;5.53;;;12.40;99.90;;;;;;4996700;28;20041;-56
2022/04/28 01:24:30;;;;;;;5.50;4.85;;;12.40;99.90;;;;;;4996446;28;20033;-55
2022/04/28 01:26:57;;;;;;;5.22;4.72;;;12.50;99.90;;;;;;4996388;28;20026;-58
2022/04/28 01:29:23;;;;;;;6.20;5.40;;;12.60;99.90;;;;;;4996372;28;20131;-56
2022/04/28 01:31:49;;;;;;;5.28;4.70;;;12.70;99.90;;;;;;4996612;28;20057;-59
2022/04/28 01:34:14;;;;;;;6.32;4.80;;;12.70;99.90;;;;;;4996548;28;20629;-55
2022/04/28 01:36:40;;;;;;;5.97;4.53;;;12.70;99.90;;;;;;4996155;28;20381;-56
2022/04/28 01:39:10;;;;;;;6.57;5.88;;;12.70;99.90;;;;;;4996303;28;20033;-57
2022/04/28 01:41:36;;;;;;;5.18;4.60;;;12.70;99.90;;;;;;4996258;28;20105;-54
2022/04/28 01:44:05;;;;;;;7.75;5.30;;;12.70;99.90;;;;;;4995895;28;20084;-57
2022/04/28 01:46:31;;;;;;;5.40;4.57;;;12.60;99.90;;;;;;4995347;28;20037;-58
2022/04/28 01:48:57;;;;;;;6.13;5.53;;;12.60;99.90;;;;;;4995981;28;20393;-56
2022/04/28 01:56:51;;;;;;;6.47;5.50;;;12.50;99.90;;;;;;4995617;28;20401;-57
2022/04/28 01:59:17;;;;;;;6.65;5.03;;;12.50;99.90;;;;;;4995797;28;20026;-57
2022/04/28 02:01:42;;;;;;;7.13;5.72;;;12.50;99.90;;;;;;4995878;28;20031;-57
2022/04/28 02:04:08;;;;;;;12.38;8.52;;;12.60;99.90;;;;;;4995622;28;20018;-57
2022/04/28 02:06:34;;;;;;;7.78;6.95;;;12.50;99.90;;;;;;4996022;28;20023;-56
2022/04/28 02:09:00;;;;;;;7.65;6.50;;;12.40;99.90;;;;;;4995683;28;20026;-58
2022/04/28 02:11:25;;;;;;;8.13;6.45;;;12.30;99.90;;;;;;4995355;28;20103;-55
2022/04/28 02:13:51;;;;;;;7.82;6.43;;;12.30;99.90;;;;;;4995490;28;20469;-59
2022/04/28 02:16:18;;;;;;;6.63;4.95;;;12.30;99.90;;;;;;4995428;28;20385;-56
2022/04/28 02:18:44;;;;;;;5.85;4.80;;;12.40;99.90;;;;;;4995380;28;20477;-57
2022/04/28 02:21:09;;;;;;;6.15;5.55;;;12.50;99.90;;;;;;4995364;28;20034;-55
2022/04/28 02:23:35;;;;;;;5.25;4.75;;;12.50;99.90;;;;;;4995312;28;20026;-57
2022/04/28 02:26:01;;;;;;;6.72;5.57;;;12.60;99.90;;;;;;4995154;28;20103;-59
2022/04/28 02:28:26;;;;;;;5.03;4.53;;;12.60;99.90;;;;;;4995176;28;20412;-59
2022/04/28 02:30:52;;;;;;;8.55;7.25;;;12.60;99.90;;;;;;4995251;28;20034;-54
2022/04/28 02:33:19;;;;;;;5.38;4.50;;;12.60;99.90;;;;;;4995118;28;20033;-59
2022/04/28 02:35:45;;;;;;;7.03;5.95;;;12.50;99.90;;;;;;4995032;28;20057;-57
2022/04/28 02:38:11;;;;;;;6.57;5.88;;;12.60;99.90;;;;;;4995064;28;20039;-57
2022/04/28 02:40:37;;;;;;;4.93;4.43;;;12.50;99.90;;;;;;4994800;28;20037;-56
2022/04/28 02:43:03;;;;;;;7.70;6.82;;;12.50;99.90;;;;;;4994905;28;20022;-58
2022/04/28 02:45:29;;;;;;;8.25;6.72;;;12.50;99.90;;;;;;4995230;28;20053;-57
2022/04/28 02:47:54;;;;;;;7.88;6.38;;;12.40;99.90;;;;;;4995181;28;20034;-54
2022/04/28 02:50:21;;;;;;;6.00;5.22;;;12.30;99.90;;;;;;4994855;28;20030;-57
2022/04/28 02:52:51;;;;;;;7.45;6.28;;;12.30;99.90;;;;;;4994812;28;20046;-60
2022/04/28 02:55:17;;;;;;;6.47;5.57;;;12.30;99.90;;;;;;4994393;28;20034;-55
2022/04/28 02:57:43;;;;;;;8.15;6.45;;;12.40;99.90;;;;;;4994250;28;20022;-57
2022/04/28 03:00:09;;;;;;;7.78;6.55;;;12.30;99.90;;;;;;4994677;28;20442;-57
2022/04/28 03:02:35;;;;;;;8.95;6.57;;;12.30;99.90;;;;;;4994595;28;20064;-55
2022/04/28 03:05:04;;;;;;;6.65;5.30;;;12.30;99.90;;;;;;4994567;28;20058;-55
2022/04/28 03:12:58;;;;;;;11.57;7.10;;;12.30;99.90;;;;;;4994553;28;20551;-58
2022/04/28 03:15:25;;;;;;;8.80;7.78;;;12.20;99.90;;;;;;4994373;28;20026;-58
2022/04/28 03:17:51;;;;;;;12.45;9.05;;;12.20;99.90;;;;;;4994354;28;20019;-54
2022/04/28 03:20:17;;;;;;;7.63;6.15;;;12.10;99.90;;;;;;4994323;28;20362;-60
2022/04/28 03:22:43;;;;;;;9.95;7.72;;;12.10;99.90;;;;;;4994177;28;20027;-57
2022/04/28 03:25:09;;;;;;;11.18;8.10;;;12.20;99.90;;;;;;4994210;28;20022;-56
2022/04/28 03:27:36;;;;;;;9.32;7.63;;;12.10;99.90;;;;;;4994240;28;20092;-56
2022/04/28 03:30:03;;;;;;;12.98;6.93;;;12.10;99.90;;;;;;4994214;28;20037;-58
2022/04/28 03:32:29;;;;;;;6.70;6.00;;;12.00;99.90;;;;;;4994003;28;20485;-59
2022/04/28 03:34:54;;;;;;;8.45;6.50;;;12.10;99.90;;;;;;4994013;28;20041;-57
2022/04/28 03:37:20;;;;;;;8.02;6.30;;;12.20;99.90;;;;;;4993968;28;20038;-58
2022/04/28 03:39:46;;;;;;;7.75;6.90;;;12.30;99.90;;;;;;4994020;28;20037;-58
2022/04/28 03:42:12;;;;;;;9.00;7.57;;;12.30;99.90;;;;;;4994036;28;20031;-59
2022/04/28 03:44:37;;;;;;;10.38;9.20;;;12.30;99.90;;;;;;4994078;28;20034;-53
2022/04/28 03:47:03;;;;;;;11.27;8.63;;;12.40;99.90;;;;;;4993998;28;20495;-57
2022/04/28 03:49:29;;;;;;;10.07;8.88;;;12.40;99.90;;;;;;4993843;28;20077;-56
2022/04/28 03:51:55;;;;;;;7.28;6.35;;;12.30;99.90;;;;;;4993691;28;20473;-55
2022/04/28 03:54:21;;;;;;;6.30;5.65;;;12.30;99.90;;;;;;4993707;28;20046;-60
2022/04/28 03:56:47;;;;;;;7.50;6.30;;;12.40;99.90;;;;;;4993808;28;20492;-58
2022/04/28 03:59:13;;;;;;;6.20;5.55;;;12.50;99.90;;;;;;4993844;28;20026;-57
2022/04/28 04:01:39;;;;;;;5.95;5.35;;;12.50;99.90;;;;;;4993876;28;20102;-58
2022/04/28 04:04:05;;;;;;;5.50;5.00;;;12.60;99.90;;;;;;4993687;28;20030;-52
2022/04/28 04:06:31;;;;;;;6.30;5.55;;;12.60;99.90;;;;;;4993786;28;20030;-58
2022/04/28 04:08:57;;;;;;;5.97;5.28;;;12.60;99.90;;;;;;4995575;28;20102;-57
2022/04/28 04:11:23;;;;;;;6.07;5.47;;;12.60;99.90;;;;;;4998078;28;20026;-55
2022/04/28 04:13:49;;;;;;;6.00;5.40;;;12.60;99.90;;;;;;4997851;28;20030;-55
2022/04/28 04:16:15;;;;;;;5.10;4.70;;;12.60;99.90;;;;;;4997669;28;20120;-59
2022/04/28 04:18:41;;;;;;;7.32;6.22;;;12.50;99.90;;;;;;4997768;28;20101;-56
2022/04/28 04:21:07;;;;;;;6.78;6.03;;;12.50;99.90;;;;;;4997383;28;20050;-57
2022/04/28 04:23:33;;;;;;;5.10;4.60;;;12.50;99.90;;;;;;4997889;28;20033;-53
2022/04/28 04:26:01;;;;;;;8.20;6.60;;;12.50;99.90;;;;;;4997466;28;20026;-60
2022/04/28 04:28:27;;;;;;;6.28;5.65;;;12.60;99.90;;;;;;4997423;28;20031;-59
2022/04/28 04:33:36;;;;;;;;;;;12.70;99.90;;;;;;4997744;28;20401;-55
2022/04/28 04:36:03;;;;;;;9.43;7.57;;;12.70;99.90;;;;;;4997303;28;19910;-54
2022/04/28 04:38:29;;;;;;;11.63;9.13;;;12.70;99.90;;;;;;4997462;28;20521;-56
2022/04/28 04:40:55;;;;;;;12.07;9.40;;;12.70;99.90;;;;;;4997135;28;20118;-54
2022/04/28 04:43:20;;;;;;;13.57;10.27;;;12.80;99.90;;;;;;4997259;28;20029;-58
2022/04/28 04:45:46;;;;;;;13.93;10.95;;;12.80;99.90;;;;;;4997227;28;20428;-60
2022/04/28 04:48:13;;;;;;;12.85;10.90;;;12.80;99.90;;;;;;4997051;28;20030;-52
2022/04/28 04:50:39;;;;;;;18.25;13.43;;;12.80;99.90;;;;;;4996870;28;20022;-57
2022/04/28 04:53:06;;;;;;;13.77;11.23;;;12.90;99.90;;;;;;4996817;28;20058;-54
2022/04/28 04:55:33;;;;;;;17.83;12.05;;;12.80;99.90;;;;;;4996895;28;20034;-60
2022/04/28 04:57:59;;;;;;;17.70;14.00;;;12.90;99.90;;;;;;4997213;28;20026;-56
2022/04/28 05:00:26;;;;;;;17.65;13.25;;;12.80;99.90;;;;;;4995752;28;20101;-58
2022/04/28 05:02:51;;;;;;;14.95;11.40;;;12.80;99.90;;;;;;4993298;28;20022;-58
2022/04/28 05:05:17;;;;;;;17.58;13.85;;;12.80;99.90;;;;;;4996280;28;20026;-55
2022/04/28 05:07:43;;;;;;;15.60;11.80;;;12.90;99.90;;;;;;4996718;28;20086;-51
2022/04/28 05:10:09;;;;;;;15.35;12.07;;;12.90;99.90;;;;;;4992689;28;20038;-56
2022/04/28 05:12:35;;;;;;;16.98;12.32;;;13.00;99.90;;;;;;4993939;28;20035;-60
2022/04/28 05:15:01;;;;;;;18.50;12.32;;;13.00;99.90;;;;;;4995200;28;20026;-54
2022/04/28 05:17:27;;;;;;;19.63;15.18;;;13.00;99.90;;;;;;4995562;28;20109;-54
2022/04/28 05:19:56;;;;;;;18.92;14.73;;;12.90;99.90;;;;;;4995536;28;20109;-52
2022/04/28 05:22:22;;;;;;;17.90;14.05;;;12.60;99.90;;;;;;4993190;28;20037;-57
2022/04/28 05:24:48;;;;;;;17.23;11.93;;;12.50;99.90;;;;;;4996801;28;20027;-56
2022/04/28 05:27:14;;;;;;;18.48;12.40;;;12.50;99.90;;;;;;4996152;28;20548;-57
2022/04/28 05:29:40;;;;;;;11.95;10.00;;;12.70;99.90;;;;;;4996466;28;20515;-56
2022/04/28 05:32:06;;;;;;;11.80;9.32;;;12.70;99.90;;;;;;4995881;28;20061;-56
2022/04/28 05:34:31;;;;;;;14.77;9.90;;;12.80;99.90;;;;;;4995592;28;20105;-57
2022/04/28 05:36:58;;;;;;;11.88;8.90;;;12.90;99.90;;;;;;4989611;28;20122;-56
2022/04/28 05:39:24;;;;;;;11.10;8.02;;;13.00;99.90;;;;;;4985973;28;20418;-57
2022/04/28 05:41:50;;;;;;;10.57;8.40;;;13.00;99.90;;;;;;4977235;28;20031;-54
2022/04/28 05:47:00;;;;;;;9.13;7.78;;;13.10;99.90;;;;;;4975910;28;20078;-63
2022/04/28 05:49:26;;;;;;;8.00;6.97;;;13.10;99.90;;;;;;4974888;28;20027;-67
2022/04/28 05:51:52;;;;;;;9.45;7.97;;;13.10;99.90;;;;;;4975138;28;20059;-65
2022/04/28 05:57:40;;;;;;;12.90;10.25;;;13.20;99.90;;;;;;5005047;28;20092;-66
2022/04/28 06:00:07;;;;;;;25.00;15.63;;;13.20;99.90;;;;;;5002586;28;20476;-69
2022/04/28 06:02:34;;;;;;;17.90;12.75;;;13.10;99.90;;;;;;4997155;28;20054;-67
2022/04/28 06:05:00;;;;;;;17.98;13.90;;;13.00;99.90;;;;;;4992142;28;20045;-66
2022/04/28 06:07:27;;;;;;;18.23;13.02;;;12.90;99.90;;;;;;5002075;28;20026;-67
2022/04/28 06:09:52;;;;;;;17.45;11.70;;;13.10;99.90;;;;;;5001227;28;20049;-67
2022/04/28 06:12:18;;;;;;;15.95;10.48;;;13.20;99.90;;;;;;5004285;28;20069;-63
2022/04/28 06:14:44;;;;;;;13.80;10.45;;;13.30;99.90;;;;;;5001314;28;20105;-66
2022/04/28 06:17:10;;;;;;;15.68;13.45;;;13.40;99.90;;;;;;5001853;28;20022;-68
2022/04/28 06:19:36;;;;;;;18.17;13.82;;;13.50;99.90;;;;;;4997183;28;20033;-68
2022/04/28 06:22:02;;;;;;;17.27;12.95;;;13.60;99.90;;;;;;4991666;28;20397;-65
2022/04/28 06:24:28;;;;;;;14.63;12.48;;;13.60;99.90;;;;;;4996925;28;20064;-69
2022/04/28 06:26:54;;;;;;;15.95;12.25;;;13.60;99.90;;;;;;4997578;28;20081;-65
2022/04/28 06:29:22;;;;;;;12.80;10.20;;;13.60;99.90;;;;;;4998412;28;20089;-62
2022/04/28 06:31:48;;;;;;;15.77;13.40;;;13.60;99.90;;;;;;4997774;28;20060;-63
2022/04/28 06:34:14;;;;;;;15.70;12.95;;;13.60;99.90;;;;;;4995483;28;20430;-67
2022/04/28 06:36:39;;;;;;;16.45;12.45;;;13.70;99.90;;;;;;4993836;28;20053;-65
2022/04/28 06:39:05;;;;;;;13.98;10.93;;;13.60;99.90;;;;;;4992987;28;20062;-67
2022/04/28 06:41:31;;;;;;;14.05;11.10;;;13.50;99.90;;;;;;4994288;28;20378;-62
2022/04/28 06:43:57;;;;;;;11.48;9.43;;;13.50;99.90;;;;;;4993586;28;21033;-64
2022/04/28 06:46:23;;;;;;;10.10;7.82;;;13.40;99.90;;;;;;4992281;28;20057;-68
2022/04/28 06:48:49;;;;;;;11.40;9.68;;;13.40;99.90;;;;;;4995088;28;20018;-64
2022/04/28 06:51:15;;;;;;;10.18;9.18;;;13.50;99.90;;;;;;4992238;28;20022;-66
2022/04/28 06:53:42;;;;;;;11.07;9.05;;;13.40;99.90;;;;;;4995774;28;20061;-59
2022/04/28 06:56:08;;;;;;;9.13;7.80;;;13.60;99.90;;;;;;4997843;28;20084;-68
2022/04/28 06:58:35;;;;;;;9.48;8.38;;;13.60;99.90;;;;;;5000506;28;20102;-64
2022/04/28 07:01:01;;;;;;;8.20;7.40;;;13.60;99.90;;;;;;5001679;28;20132;-73
2022/04/28 07:03:26;;;;;;;7.88;7.07;;;13.50;99.90;;;;;;4987561;28;20580;-64
2022/04/28 07:05:53;;;;;;;8.68;7.78;;;13.30;99.90;;;;;;4977661;28;20046;-66
2022/04/28 07:08:19;;;;;;;7.35;6.38;;;13.40;99.90;;;;;;4968747;28;20492;-68
2022/04/28 07:10:45;;;;;;;9.68;6.75;;;13.40;99.90;;;;;;4984361;28;20033;-68
2022/04/28 07:13:11;;;;;;;7.30;6.18;;;13.60;99.90;;;;;;4999766;28;20092;-71
2022/04/28 07:15:38;;;;;;;6.82;6.13;;;13.80;99.90;;;;;;4998044;28;20042;-66
2022/04/28 07:18:05;;;;;;;8.30;7.03;;;13.90;99.90;;;;;;4997032;28;20014;-72
2022/04/28 07:20:35;;;;;;;6.93;6.22;;;14.10;99.90;;;;;;4998490;28;20686;-64
2022/04/28 07:23:01;;;;;;;8.95;7.57;;;14.10;99.90;;;;;;4985627;28;20031;-65
2022/04/28 07:25:28;;;;;;;10.75;8.85;;;14.30;99.90;;;;;;4984999;28;20030;-69
2022/04/28 07:27:55;;;;;;;11.13;9.75;;;14.30;99.90;;;;;;4984856;28;20030;-68
2022/04/28 07:30:21;;;;;;;10.00;8.85;;;14.30;99.90;;;;;;4985234;28;20026;-70
2022/04/28 07:32:51;;;;;;;8.45;7.43;;;14.40;99.90;;;;;;4988296;28;20388;-69
2022/04/28 07:35:19;;;;;;;10.23;8.25;;;14.40;99.90;;;;;;5005463;28;20021;-66
2022/04/28 07:37:45;;;;;;;7.40;6.18;;;14.40;99.90;;;;;;4990913;28;20015;-65
2022/04/28 07:40:11;;;;;;;8.63;7.70;;;14.40;99.90;;;;;;5000199;28;20026;-65
2022/04/28 07:42:37;;;;;;;7.68;6.60;;;14.40;99.90;;;;;;4992271;28;20026;-67
2022/04/28 07:45:03;;;;;;;8.73;7.30;;;14.30;99.90;;;;;;4998027;28;20025;-65
2022/04/28 07:47:29;;;;;;;8.45;6.20;;;14.50;99.90;;;;;;4983897;28;20034;-65
2022/04/28 07:49:55;;;;;;;7.80;5.63;;;14.60;99.90;;;;;;4981280;28;20026;-64
2022/04/28 07:55:03;;;;;;;5.88;5.38;;;14.80;99.90;;;;;;5095427;27;20766;-63
2022/04/28 07:57:29;;;;;;;7.00;5.57;;;15.00;99.40;;;;;;5074111;28;20470;-63
2022/04/28 07:59:54;;;;;;;6.95;6.25;;;15.20;99.30;;;;;;5106708;28;20035;-65
2022/04/28 08:02:20;;;;;;;7.75;6.00;;;15.20;96.60;;;;;;5109076;28;20028;-64
2022/04/28 08:04:46;;;;;;;9.35;7.85;;;15.20;99.90;;;;;;5104068;28;20489;-69
2022/04/28 08:07:11;;;;;;;10.23;8.65;;;14.90;99.90;;;;;;5104089;28;20024;-62
2022/04/28 08:09:37;;;;;;;10.80;8.02;;;14.90;99.30;;;;;;5104715;28;20471;-65
2022/04/28 08:12:03;;;;;;;12.65;8.93;;;14.90;99.90;;;;;;5106399;28;20063;-68
2022/04/28 08:14:29;;;;;;;11.70;9.48;;;14.90;99.90;;;;;;5099016;28;20498;-60
2022/04/28 08:16:55;;;;;;;11.43;9.10;;;15.10;99.90;;;;;;5100544;28;20099;-64
2022/04/28 08:19:21;;;;;;;13.00;10.07;;;15.20;99.10;;;;;;5109422;28;20424;-66
2022/04/28 08:21:48;;;;;;;10.63;8.40;;;15.30;99.90;;;;;;5102020;28;20028;-63
2022/04/28 08:24:14;;;;;;;9.27;7.90;;;15.30;99.90;;;;;;5104587;28;20351;-61
2022/04/28 08:26:40;;;;;;;11.38;9.43;;;15.30;98.70;;;;;;5098763;28;20433;-69
2022/04/28 08:29:06;;;;;;;12.32;9.50;;;15.20;98.70;;;;;;5098656;28;20081;-67
2022/04/28 08:31:32;;;;;;;11.43;8.18;;;15.20;99.50;;;;;;5108852;28;20475;-64
2022/04/28 08:33:58;;;;;;;9.07;7.88;;;15.30;99.10;;;;;;5102060;28;20055;-63
2022/04/28 08:36:25;;;;;;;7.88;7.07;;;15.40;97.30;;;;;;5106461;28;20061;-64
2022/04/28 08:38:52;;;;;;;8.25;7.45;;;15.30;97.60;;;;;;5104324;28;20119;-63
2022/04/28 08:41:45;;;;;;;7.40;6.43;;;15.30;96.30;;;;;;5106702;28;20070;-68
2022/04/28 08:44:15;;;;;;;8.48;6.85;;;15.40;96.20;;;;;;5106985;28;20538;-63
2022/04/28 08:46:53;;;;;;;16.50;12.57;;;15.50;98.30;;;;;;5107775;28;20059;-65
2022/04/28 08:49:28;;;;;;;15.18;12.13;;;15.90;98.30;;;;;;5107636;28;20096;-63
2022/04/28 08:51:56;;;;;;;15.15;11.55;;;16.30;93.60;;;;;;5105421;28;20369;-64
2022/04/28 08:54:24;;;;;;;13.70;11.05;;;16.80;92.20;;;;;;5105839;28;20153;-64
2022/04/28 08:56:52;;;;;;;13.88;11.85;;;17.20;87.90;;;;;;5105627;28;20039;-65
2022/04/28 08:59:21;;;;;;;14.13;10.50;;;17.30;86.00;;;;;;5106014;28;20096;-65
2022/04/28 09:01:47;;;;;;;14.10;9.85;;;17.70;84.90;;;;;;5105541;28;20020;-67
2022/04/28 09:04:14;;;;;;;12.68;11.30;;;17.80;86.80;;;;;;5103458;28;20047;-60
2022/04/28 09:06:42;;;;;;;23.80;17.83;;;17.70;83.90;;;;;;5092609;28;20489;-64
2022/04/28 09:09:15;;;;;;;16.85;14.20;;;17.80;83.00;;;;;;5093959;28;20036;-70
2022/04/28 09:11:42;;;;;;;15.02;13.02;;;17.70;82.30;;;;;;5093710;28;20020;-65
2022/04/28 09:14:15;;;;;;;21.33;17.17;;;17.70;82.20;;;;;;5093756;28;20036;-62
2022/04/28 09:16:48;;;;;;;14.27;11.33;;;17.50;84.10;;;;;;5093141;28;20030;-67
2022/04/28 09:19:19;;;;;;;10.15;7.90;;;17.40;84.20;;;;;;5093956;28;20051;-64
2022/04/28 09:21:46;;;;;;;7.93;7.13;;;17.20;83.10;;;;;;5093529;28;20127;-63
2022/04/28 09:24:13;;;;;;;9.32;7.18;;;17.20;82.60;;;;;;5094519;28;20077;-68
2022/04/28 09:26:41;;;;;;;13.05;5.82;;;17.10;84.70;;;;;;5094790;28;20528;-66
2022/04/28 09:29:13;;;;;;;7.47;6.20;;;17.00;86.30;;;;;;5094105;28;20455;-68
2022/04/28 09:31:43;;;;;;;6.07;5.43;;;16.90;86.00;;;;;;5090517;28;20051;-62
2022/04/28 09:34:11;;;;;;;7.40;5.72;;;16.90;85.40;;;;;;5092949;28;20040;-64
2022/04/28 09:36:38;;;;;;;5.55;5.00;;;17.00;87.90;;;;;;5094130;28;20541;-72
2022/04/28 09:39:05;;;;;;;7.78;5.97;;;16.80;87.80;;;;;;5095011;28;20061;-61
2022/04/28 09:44:16;;;;;;;6.70;6.00;;;16.40;86.00;;;;;;5094975;28;20035;-64
2022/04/28 09:46:43;;;;;;;6.72;5.55;;;16.40;85.30;;;;;;5093715;28;20016;-60
2022/04/28 09:49:16;;;;;;;6.30;5.60;;;16.30;89.40;;;;;;5093090;28;20031;-68
2022/04/28 09:51:42;;;;;;;6.78;6.07;;;16.30;90.70;;;;;;5094760;28;20359;-64
2022/04/28 09:54:14;;;;;;;9.35;6.25;;;16.40;88.10;;;;;;5092941;28;20036;-63
2022/04/28 09:56:42;;;;;;;8.07;5.30;;;16.30;89.60;;;;;;5095412;28;20373;-60
2022/04/28 09:59:11;;;;;;;8.02;5.82;;;16.20;88.70;;;;;;5095274;28;20032;-51
2022/04/28 10:01:38;;;;;;;7.13;5.22;;;16.30;90.00;;;;;;5094418;28;20020;-57
2022/04/28 10:04:05;;;;;;;12.55;5.57;;;16.10;88.30;;;;;;5092439;28;20025;-56
2022/04/28 10:06:34;;;;;;;6.00;5.20;;;15.80;89.30;;;;;;5091545;28;20032;-55
2022/04/28 10:09:04;;;;;;;5.25;4.75;;;15.80;90.40;;;;;;5092978;28;20332;-55
2022/04/28 10:11:31;;;;;;;6.30;5.25;;;15.90;91.20;;;;;;5093792;28;20020;-55
2022/04/28 10:13:59;;;;;;;6.05;4.97;;;16.00;91.80;;;;;;5092090;28;20024;-56
2022/04/28 10:16:25;;;;;;;5.70;5.20;;;15.90;91.60;;;;;;5091054;28;20390;-57
2022/04/28 10:19:17;;;;;;;8.27;6.20;;;15.70;92.10;;;;;;5092376;28;20036;-59
2022/04/28 10:22:04;;;;;;;8.77;7.88;;;15.70;92.80;;;;;;5073120;28;20075;-56
2022/04/28 10:32:55;;;;;;;9.95;7.68;;;15.60;93.20;;;;;;5092473;28;20406;-58
2022/04/28 10:35:45;;;;;;;10.77;7.45;;;15.70;98.40;;;;;;5092089;28;20024;-57
2022/04/28 10:38:30;;;;;;;16.65;10.20;;;15.80;97.70;;;;;;5091463;28;20016;-58
2022/04/28 10:41:07;;;;;;;9.73;6.60;;;15.90;97.40;;;;;;5072516;28;20024;-58
2022/04/28 10:43:33;;;;;;;8.70;7.82;;;16.00;96.40;;;;;;5089481;28;20062;-58
2022/04/28 10:46:06;;;;;;;7.22;6.53;;;16.10;95.20;;;;;;5092022;28;20051;-55
2022/04/28 10:48:34;;;;;;;7.40;6.20;;;16.00;93.70;;;;;;5093051;28;20024;-54
2022/04/28 10:51:13;;;;;;;7.65;6.20;;;15.90;94.60;;;;;;5092224;28;20036;-56
2022/04/28 10:54:11;;;;;;;6.07;5.40;;;15.70;95.80;;;;;;5091321;28;20135;-59
2022/04/28 10:56:40;;;;;;;8.32;6.40;;;15.70;95.00;;;;;;5091142;28;20035;-58
2022/04/28 10:59:32;;;;;;;9.00;7.85;;;15.70;96.10;;;;;;5092079;28;20428;-59
2022/04/28 11:02:21;;;;;;;9.30;7.35;;;15.70;95.50;;;;;;5091761;28;20035;-51
2022/04/28 11:04:52;;;;;;;7.35;6.22;;;15.30;95.40;;;;;;5081903;28;20051;-57
2022/04/28 11:07:25;;;;;;;7.57;6.43;;;15.10;96.00;;;;;;5091779;28;20017;-57
2022/04/28 11:09:57;;;;;;;9.18;6.00;;;15.20;99.90;;;;;;5085340;28;20059;-59
2022/04/28 11:12:25;;;;;;;11.18;6.97;;;15.20;99.90;;;;;;5087601;28;20093;-55
2022/04/28 11:15:05;;;;;;;8.18;6.03;;;15.30;99.90;;;;;;5092714;28;20028;-55
2022/04/28 11:17:33;;;;;;;6.15;5.55;;;15.10;97.70;;;;;;5091412;28;20027;-56
2022/04/28 11:20:02;;;;;;;8.30;5.80;;;15.30;98.50;;;;;;5086673;28;20382;-55
2022/04/28 11:22:28;;;;;;;8.30;5.47;;;15.30;98.30;;;;;;5091156;28;20064;-58
2022/04/28 11:24:56;;;;;;;6.13;5.07;;;15.20;98.40;;;;;;5092526;28;20035;-56
2022/04/28 11:27:24;;;;;;;6.22;5.35;;;15.30;98.30;;;;;;5091129;28;20084;-57
2022/04/28 11:29:51;;;;;;;5.68;5.07;;;15.40;99.40;;;;;;5091630;28;20169;-56
2022/04/28 11:32:17;;;;;;;5.90;5.22;;;15.40;99.50;;;;;;5092434;28;20020;-53
2022/04/28 11:34:46;;;;;;;8.23;6.07;;;15.40;97.40;;;;;;5091916;28;20112;-56
2022/04/28 11:37:17;;;;;;;8.68;5.90;;;15.50;98.80;;;;;;5091057;28;20023;-56
2022/04/28 11:39:48;;;;;;;9.43;6.50;;;15.50;97.40;;;;;;5091619;28;20028;-57
2022/04/28 11:42:18;;;;;;;5.68;4.90;;;15.50;97.70;;;;;;5090078;28;20016;-55
2022/04/28 11:44:52;;;;;;;5.63;5.05;;;15.60;99.30;;;;;;5082689;28;20040;-58
2022/04/28 11:47:19;;;;;;;6.25;5.63;;;15.80;97.30;;;;;;5089312;28;20027;-58
2022/04/28 11:49:46;;;;;;;5.22;4.40;;;15.90;96.10;;;;;;5089748;28;20020;-56
2022/04/28 11:52:18;;;;;;;6.30;5.70;;;16.10;96.20;;;;;;5089577;28;20024;-54
2022/04/28 11:54:44;;;;;;;6.28;5.45;;;15.90;95.80;;;;;;5090257;28;20052;-58
2022/04/28 11:57:11;;;;;;;5.55;5.03;;;15.90;93.90;;;;;;5089247;28;20478;-56
2022/04/28 11:59:38;;;;;;;5.15;4.50;;;15.90;95.50;;;;;;5079603;28;20037;-56
2022/04/28 12:02:03;;;;;;;5.25;4.55;;;16.10;94.90;;;;;;5086635;28;20069;-57
2022/04/28 12:04:29;;;;;;;5.38;4.72;;;16.30;93.80;;;;;;5090524;28;20436;-56
2022/04/28 12:06:55;;;;;;;4.68;4.28;;;16.30;94.10;;;;;;5091379;28;20032;-55
2022/04/28 12:14:55;;;;;;;7.18;6.00;;;16.40;91.70;;;;;;5074208;28;20708;-57
2022/04/28 12:20:10;;;;;;;7.63;6.65;;;16.40;93.90;;;;;;5072896;28;20505;-58
2022/04/28 12:22:39;;;;;;;6.72;6.13;;;16.60;93.80;;;;;;5083196;28;20024;-60
2022/04/28 12:25:10;;;;;;;5.63;5.13;;;16.80;92.00;;;;;;5083326;28;20401;-59
2022/04/28 12:27:52;;;;;;;6.50;5.80;;;17.10;91.80;;;;;;5089743;28;20012;-56
2022/04/28 12:30:19;;;;;;;7.65;6.82;;;17.50;90.10;;;;;;5090868;28;20069;-57
2022/04/28 12:32:51;;;;;;;5.95;5.45;;;17.50;90.00;;;;;;5092764;28;20027;-58
2022/04/28 12:35:21;;;;;;;7.10;6.15;;;17.40;87.00;;;;;;5092833;28;20382;-56
2022/04/28 12:37:52;;;;;;;5.20;4.55;;;17.30;90.00;;;;;;5092432;28;20467;-57
2022/04/28 12:40:19;;;;;;;5.55;4.93;;;17.30;86.00;;;;;;5092286;28;20017;-60
2022/04/28 12:42:47;;;;;;;6.50;5.28;;;17.10;87.40;;;;;;5094266;28;20028;-57
2022/04/28 12:45:14;;;;;;;5.72;4.30;;;17.00;90.30;;;;;;5093516;28;20363;-56
2022/04/28 12:47:42;;;;;;;7.38;5.40;;;17.00;89.90;;;;;;5093699;28;20027;-58
2022/04/28 12:50:25;;;;;;;5.40;4.85;;;16.90;87.00;;;;;;5076156;28;20394;-59
2022/04/28 12:52:51;;;;;;;7.10;5.97;;;16.80;86.50;;;;;;5094611;28;20024;-60
2022/04/28 12:55:19;;;;;;;7.60;5.30;;;16.60;89.20;;;;;;5095548;28;20024;-56
2022/04/28 12:57:49;;;;;;;6.82;5.60;;;16.60;90.30;;;;;;5095927;28;20103;-58
2022/04/28 13:00:18;;;;;;;8.43;6.97;;;16.50;90.70;;;;;;5096231;28;20036;-56
2022/04/28 13:02:52;;;;;;;6.32;5.53;;;16.40;90.40;;;;;;5096369;28;20382;-56
2022/04/28 13:05:21;;;;;;;7.43;6.68;;;16.30;91.70;;;;;;5095149;28;20048;-57
2022/04/28 13:07:47;;;;;;;7.15;6.45;;;16.30;90.90;;;;;;5096109;28;20016;-55
2022/04/28 13:10:14;;;;;;;7.30;6.60;;;16.30;91.20;;;;;;5095752;28;20097;-52
2022/04/28 13:12:40;;;;;;;6.45;5.82;;;16.20;91.00;;;;;;5094151;28;20097;-56
2022/04/28 13:15:06;;;;;;;6.13;5.38;;;16.20;92.60;;;;;;5093767;28;20031;-51
2022/04/28 13:17:32;;;;;;;7.55;6.75;;;16.40;92.50;;;;;;5094915;28;20478;-58
2022/04/28 13:19:58;;;;;;;5.90;5.28;;;16.50;92.10;;;;;;5095902;28;20043;-54
2022/04/28 13:22:25;;;;;;;7.78;6.43;;;16.70;92.40;;;;;;5076903;28;20143;-53
2022/04/28 13:24:50;;;;;;;9.52;6.28;;;16.80;92.70;;;;;;5093853;28;20032;-57
2022/04/28 13:27:17;;;;;;;11.55;6.22;;;16.90;92.80;;;;;;5093664;28;20086;-55